sensor_id;sensor_type;location;lat;lon;timestamp;temperature;humidity
60287;DHT22;46141;52.382;5.270;2023-03-19T00:01:50;20.50;69.90
60287;DHT22;46141;52.382;5.270;2023-03-19T00:04:16;20.50;70.00
60287;DHT22;46141;52.382;5.270;2023-03-19T00:06:42;20.50;70.00
60287;DHT22;46141;52.382;5.270;2023-03-19T00:09:08;20.40;70.00
60287;DHT22;46141;52.382;5.270;2023-03-19T00:11:34;20.50;70.00
60287;DHT22;46141;52.382;5.270;2023-03-19T00:13:59;20.50;70.00
60287;DHT22;46141;52.382;5.270;2023-03-19T00:16:25;20.50;70.00
60287;DHT22;46141;52.382;5.270;2023-03-19T00:18:51;20.40;70.00
60287;DHT22;46141;52.382;5.270;2023-03-19T00:21:16;20.40;70.10
60287;DHT22;46141;52.382;5.270;2023-03-19T00:23:42;20.40;70.00
60287;DHT22;46141;52.382;5.270;2023-03-19T00:26:08;20.40;70.00
60287;DHT22;46141;52.382;5.270;2023-03-19T00:28:34;20.40;70.10
60287;DHT22;46141;52.382;5.270;2023-03-19T00:31:09;20.50;70.20
60287;DHT22;46141;52.382;5.270;2023-03-19T00:33:35;20.40;70.30
60287;DHT22;46141;52.382;5.270;2023-03-19T00:36:01;20.40;70.20
60287;DHT22;46141;52.382;5.270;2023-03-19T00:38:26;20.40;70.30
60287;DHT22;46141;52.382;5.270;2023-03-19T00:40:52;20.40;70.30
60287;DHT22;46141;52.382;5.270;2023-03-19T00:43:18;20.40;70.30
60287;DHT22;46141;52.382;5.270;2023-03-19T00:45:44;20.40;70.40
60287;DHT22;46141;52.382;5.270;2023-03-19T00:48:10;20.30;70.30
60287;DHT22;46141;52.382;5.270;2023-03-19T00:50:35;20.40;70.40
60287;DHT22;46141;52.382;5.270;2023-03-19T00:53:01;20.30;70.40
60287;DHT22;46141;52.382;5.270;2023-03-19T00:55:27;20.30;70.40
60287;DHT22;46141;52.382;5.270;2023-03-19T00:57:52;20.30;70.40
60287;DHT22;46141;52.382;5.270;2023-03-19T01:00:18;20.30;70.40
60287;DHT22;46141;52.382;5.270;2023-03-19T01:02:44;20.30;70.30
60287;DHT22;46141;52.382;5.270;2023-03-19T01:05:10;20.30;70.30
60287;DHT22;46141;52.382;5.270;2023-03-19T01:07:36;20.30;70.40
60287;DHT22;46141;52.382;5.270;2023-03-19T01:10:02;20.30;70.30
60287;DHT22;46141;52.382;5.270;2023-03-19T01:12:28;20.30;70.30
60287;DHT22;46141;52.382;5.270;2023-03-19T01:14:54;20.30;70.40
60287;DHT22;46141;52.382;5.270;2023-03-19T01:17:20;20.20;70.30
60287;DHT22;46141;52.382;5.270;2023-03-19T01:19:45;20.20;70.40
60287;DHT22;46141;52.382;5.270;2023-03-19T01:22:12;20.20;70.40
60287;DHT22;46141;52.382;5.270;2023-03-19T01:24:38;20.20;70.40
60287;DHT22;46141;52.382;5.270;2023-03-19T01:27:04;20.20;70.30
60287;DHT22;46141;52.382;5.270;2023-03-19T01:29:30;20.20;70.30
60287;DHT22;46141;52.382;5.270;2023-03-19T01:31:55;20.20;70.50
60287;DHT22;46141;52.382;5.270;2023-03-19T01:34:21;20.20;70.30
60287;DHT22;46141;52.382;5.270;2023-03-19T01:36:47;20.20;70.40
60287;DHT22;46141;52.382;5.270;2023-03-19T01:39:13;20.20;70.40
60287;DHT22;46141;52.382;5.270;2023-03-19T01:41:39;20.20;70.40
60287;DHT22;46141;52.382;5.270;2023-03-19T01:44:23;20.20;70.20
60287;DHT22;46141;52.382;5.270;2023-03-19T01:46:49;20.10;70.20
60287;DHT22;46141;52.382;5.270;2023-03-19T01:49:18;20.10;70.20
60287;DHT22;46141;52.382;5.270;2023-03-19T01:51:46;20.10;70.10
60287;DHT22;46141;52.382;5.270;2023-03-19T01:54:20;20.10;70.00
60287;DHT22;46141;52.382;5.270;2023-03-19T01:56:52;20.10;70.00
60287;DHT22;46141;52.382;5.270;2023-03-19T01:59:25;20.10;69.90
60287;DHT22;46141;52.382;5.270;2023-03-19T02:04:26;20.10;69.90
60287;DHT22;46141;52.382;5.270;2023-03-19T02:06:58;20.10;69.90
60287;DHT22;46141;52.382;5.270;2023-03-19T02:09:26;20.00;69.90
60287;DHT22;46141;52.382;5.270;2023-03-19T02:11:54;20.00;69.90
60287;DHT22;46141;52.382;5.270;2023-03-19T02:14:21;20.00;70.00
60287;DHT22;46141;52.382;5.270;2023-03-19T02:16:47;20.00;70.00
60287;DHT22;46141;52.382;5.270;2023-03-19T02:19:27;20.00;69.80
60287;DHT22;46141;52.382;5.270;2023-03-19T02:21:55;20.00;69.80
60287;DHT22;46141;52.382;5.270;2023-03-19T02:24:40;20.00;69.80
60287;DHT22;46141;52.382;5.270;2023-03-19T02:27:09;20.00;70.00
60287;DHT22;46141;52.382;5.270;2023-03-19T02:29:37;20.00;70.00
60287;DHT22;46141;52.382;5.270;2023-03-19T02:32:03;20.00;69.90
60287;DHT22;46141;52.382;5.270;2023-03-19T02:34:40;19.90;69.80
60287;DHT22;46141;52.382;5.270;2023-03-19T02:37:20;19.90;69.80
60287;DHT22;46141;52.382;5.270;2023-03-19T02:39:54;19.90;69.90
60287;DHT22;46141;52.382;5.270;2023-03-19T02:42:25;19.90;69.80
60287;DHT22;46141;52.382;5.270;2023-03-19T02:44:51;19.90;69.80
60287;DHT22;46141;52.382;5.270;2023-03-19T02:47:17;19.80;69.80
60287;DHT22;46141;52.382;5.270;2023-03-19T02:49:43;19.80;69.80
60287;DHT22;46141;52.382;5.270;2023-03-19T02:52:09;19.80;69.70
60287;DHT22;46141;52.382;5.270;2023-03-19T02:54:35;19.80;69.70
60287;DHT22;46141;52.382;5.270;2023-03-19T02:57:01;19.90;69.70
60287;DHT22;46141;52.382;5.270;2023-03-19T02:59:26;19.80;69.70
60287;DHT22;46141;52.382;5.270;2023-03-19T03:01:52;19.80;69.60
60287;DHT22;46141;52.382;5.270;2023-03-19T03:04:18;19.80;69.60
60287;DHT22;46141;52.382;5.270;2023-03-19T03:06:43;19.80;69.60
60287;DHT22;46141;52.382;5.270;2023-03-19T03:09:10;19.80;69.50
60287;DHT22;46141;52.382;5.270;2023-03-19T03:11:37;19.80;69.60
60287;DHT22;46141;52.382;5.270;2023-03-19T03:14:02;19.80;69.60
60287;DHT22;46141;52.382;5.270;2023-03-19T03:16:28;19.80;69.50
60287;DHT22;46141;52.382;5.270;2023-03-19T03:18:54;19.80;69.60
60287;DHT22;46141;52.382;5.270;2023-03-19T03:21:19;19.80;69.50
60287;DHT22;46141;52.382;5.270;2023-03-19T03:23:46;19.70;69.50
60287;DHT22;46141;52.382;5.270;2023-03-19T03:26:13;19.80;69.50
60287;DHT22;46141;52.382;5.270;2023-03-19T03:28:39;19.80;69.50
60287;DHT22;46141;52.382;5.270;2023-03-19T03:31:05;19.70;69.50
60287;DHT22;46141;52.382;5.270;2023-03-19T03:33:31;19.70;69.40
60287;DHT22;46141;52.382;5.270;2023-03-19T03:35:58;19.70;69.30
60287;DHT22;46141;52.382;5.270;2023-03-19T03:38:24;19.70;69.30
60287;DHT22;46141;52.382;5.270;2023-03-19T03:40:50;19.70;69.40
60287;DHT22;46141;52.382;5.270;2023-03-19T03:43:20;19.70;69.20
60287;DHT22;46141;52.382;5.270;2023-03-19T03:45:48;19.70;69.40
60287;DHT22;46141;52.382;5.270;2023-03-19T03:48:15;19.70;69.30
60287;DHT22;46141;52.382;5.270;2023-03-19T03:50:41;19.70;69.10
60287;DHT22;46141;52.382;5.270;2023-03-19T03:53:07;19.70;69.10
60287;DHT22;46141;52.382;5.270;2023-03-19T03:55:33;19.70;69.80
60287;DHT22;46141;52.382;5.270;2023-03-19T03:57:58;19.70;69.20
60287;DHT22;46141;52.382;5.270;2023-03-19T04:00:24;19.70;69.20
60287;DHT22;46141;52.382;5.270;2023-03-19T04:02:51;19.60;69.20
60287;DHT22;46141;52.382;5.270;2023-03-19T04:05:17;19.60;69.20
60287;DHT22;46141;52.382;5.270;2023-03-19T04:07:43;19.60;69.30
60287;DHT22;46141;52.382;5.270;2023-03-19T04:10:10;19.60;69.20
60287;DHT22;46141;52.382;5.270;2023-03-19T04:12:39;19.60;69.20
60287;DHT22;46141;52.382;5.270;2023-03-19T04:15:08;19.60;69.20
60287;DHT22;46141;52.382;5.270;2023-03-19T04:17:34;19.60;69.20
60287;DHT22;46141;52.382;5.270;2023-03-19T04:20:00;19.50;69.10
60287;DHT22;46141;52.382;5.270;2023-03-19T04:22:27;19.50;69.10
60287;DHT22;46141;52.382;5.270;2023-03-19T04:24:53;19.50;69.20
60287;DHT22;46141;52.382;5.270;2023-03-19T04:27:19;19.50;69.10
60287;DHT22;46141;52.382;5.270;2023-03-19T04:29:45;19.50;69.10
60287;DHT22;46141;52.382;5.270;2023-03-19T04:32:11;19.50;69.00
60287;DHT22;46141;52.382;5.270;2023-03-19T04:34:36;19.50;69.10
60287;DHT22;46141;52.382;5.270;2023-03-19T04:37:02;19.50;68.90
60287;DHT22;46141;52.382;5.270;2023-03-19T04:39:28;19.50;69.00
60287;DHT22;46141;52.382;5.270;2023-03-19T04:41:54;19.50;69.10
60287;DHT22;46141;52.382;5.270;2023-03-19T04:44:20;19.40;68.90
60287;DHT22;46141;52.382;5.270;2023-03-19T04:46:46;19.40;68.90
60287;DHT22;46141;52.382;5.270;2023-03-19T04:49:12;19.40;69.00
60287;DHT22;46141;52.382;5.270;2023-03-19T04:51:38;19.40;68.90
60287;DHT22;46141;52.382;5.270;2023-03-19T04:54:04;19.40;68.90
60287;DHT22;46141;52.382;5.270;2023-03-19T04:56:30;19.40;68.80
60287;DHT22;46141;52.382;5.270;2023-03-19T04:58:56;19.40;68.80
60287;DHT22;46141;52.382;5.270;2023-03-19T05:01:22;19.40;68.80
60287;DHT22;46141;52.382;5.270;2023-03-19T05:03:48;19.40;69.00
60287;DHT22;46141;52.382;5.270;2023-03-19T05:06:14;19.40;68.90
60287;DHT22;46141;52.382;5.270;2023-03-19T05:08:39;19.30;68.80
60287;DHT22;46141;52.382;5.270;2023-03-19T05:11:05;19.30;68.80
60287;DHT22;46141;52.382;5.270;2023-03-19T05:13:31;19.30;68.80
60287;DHT22;46141;52.382;5.270;2023-03-19T05:15:56;19.30;68.70
60287;DHT22;46141;52.382;5.270;2023-03-19T05:18:22;19.30;68.70
60287;DHT22;46141;52.382;5.270;2023-03-19T05:20:48;19.30;68.70
60287;DHT22;46141;52.382;5.270;2023-03-19T05:23:14;19.30;68.80
60287;DHT22;46141;52.382;5.270;2023-03-19T05:25:40;19.30;68.70
60287;DHT22;46141;52.382;5.270;2023-03-19T05:28:06;19.30;68.70
60287;DHT22;46141;52.382;5.270;2023-03-19T05:30:33;19.30;68.70
60287;DHT22;46141;52.382;5.270;2023-03-19T05:32:59;19.30;68.70
60287;DHT22;46141;52.382;5.270;2023-03-19T05:35:27;19.20;68.70
60287;DHT22;46141;52.382;5.270;2023-03-19T05:37:54;19.20;68.80
60287;DHT22;46141;52.382;5.270;2023-03-19T05:40:20;19.20;68.80
60287;DHT22;46141;52.382;5.270;2023-03-19T05:42:47;19.20;68.80
60287;DHT22;46141;52.382;5.270;2023-03-19T05:45:12;19.20;68.70
60287;DHT22;46141;52.382;5.270;2023-03-19T05:47:38;19.20;68.70
60287;DHT22;46141;52.382;5.270;2023-03-19T05:50:06;19.20;68.80
60287;DHT22;46141;52.382;5.270;2023-03-19T05:52:32;19.20;68.70
60287;DHT22;46141;52.382;5.270;2023-03-19T05:54:58;19.20;68.60
60287;DHT22;46141;52.382;5.270;2023-03-19T05:57:23;19.20;68.70
60287;DHT22;46141;52.382;5.270;2023-03-19T05:59:50;19.20;68.70
60287;DHT22;46141;52.382;5.270;2023-03-19T06:02:16;19.20;68.70
60287;DHT22;46141;52.382;5.270;2023-03-19T06:04:42;19.20;68.70
60287;DHT22;46141;52.382;5.270;2023-03-19T06:07:08;19.20;68.60
60287;DHT22;46141;52.382;5.270;2023-03-19T06:09:34;19.20;68.60
60287;DHT22;46141;52.382;5.270;2023-03-19T06:11:59;19.10;68.60
60287;DHT22;46141;52.382;5.270;2023-03-19T06:14:25;19.10;68.60
60287;DHT22;46141;52.382;5.270;2023-03-19T06:16:51;19.10;68.60
60287;DHT22;46141;52.382;5.270;2023-03-19T06:19:17;19.10;68.60
60287;DHT22;46141;52.382;5.270;2023-03-19T06:21:42;19.10;68.60
60287;DHT22;46141;52.382;5.270;2023-03-19T06:24:08;19.10;68.60
60287;DHT22;46141;52.382;5.270;2023-03-19T06:26:34;19.10;68.60
60287;DHT22;46141;52.382;5.270;2023-03-19T06:29:01;19.10;68.60
60287;DHT22;46141;52.382;5.270;2023-03-19T06:31:27;19.10;68.60
60287;DHT22;46141;52.382;5.270;2023-03-19T06:33:54;19.10;68.60
60287;DHT22;46141;52.382;5.270;2023-03-19T06:36:20;19.00;68.50
60287;DHT22;46141;52.382;5.270;2023-03-19T06:38:45;19.00;68.50
60287;DHT22;46141;52.382;5.270;2023-03-19T06:41:11;19.10;68.50
60287;DHT22;46141;52.382;5.270;2023-03-19T06:43:37;19.00;68.50
60287;DHT22;46141;52.382;5.270;2023-03-19T06:46:05;19.00;68.50
60287;DHT22;46141;52.382;5.270;2023-03-19T06:48:32;19.00;68.50
60287;DHT22;46141;52.382;5.270;2023-03-19T06:50:58;19.00;68.60
60287;DHT22;46141;52.382;5.270;2023-03-19T06:53:24;19.00;68.50
60287;DHT22;46141;52.382;5.270;2023-03-19T06:55:50;19.00;68.40
60287;DHT22;46141;52.382;5.270;2023-03-19T06:58:16;19.00;68.40
60287;DHT22;46141;52.382;5.270;2023-03-19T07:00:42;19.00;68.50
60287;DHT22;46141;52.382;5.270;2023-03-19T07:03:08;18.90;68.50
60287;DHT22;46141;52.382;5.270;2023-03-19T07:05:34;19.00;68.60
60287;DHT22;46141;52.382;5.270;2023-03-19T07:08:00;19.00;68.50
60287;DHT22;46141;52.382;5.270;2023-03-19T07:10:26;19.00;68.40
60287;DHT22;46141;52.382;5.270;2023-03-19T07:12:52;19.00;68.40
60287;DHT22;46141;52.382;5.270;2023-03-19T07:15:18;19.00;68.40
60287;DHT22;46141;52.382;5.270;2023-03-19T07:17:46;19.00;68.60
60287;DHT22;46141;52.382;5.270;2023-03-19T07:20:13;19.00;68.40
60287;DHT22;46141;52.382;5.270;2023-03-19T07:22:39;19.00;68.50
60287;DHT22;46141;52.382;5.270;2023-03-19T07:25:05;18.90;68.50
60287;DHT22;46141;52.382;5.270;2023-03-19T07:27:31;18.90;68.70
60287;DHT22;46141;52.382;5.270;2023-03-19T07:29:57;18.90;69.00
60287;DHT22;46141;52.382;5.270;2023-03-19T07:32:23;18.90;69.00
60287;DHT22;46141;52.382;5.270;2023-03-19T07:34:49;18.80;69.10
60287;DHT22;46141;52.382;5.270;2023-03-19T07:37:15;18.80;69.00
60287;DHT22;46141;52.382;5.270;2023-03-19T07:39:40;18.80;69.10
60287;DHT22;46141;52.382;5.270;2023-03-19T07:42:06;18.90;69.20
60287;DHT22;46141;52.382;5.270;2023-03-19T07:44:32;18.80;69.30
60287;DHT22;46141;52.382;5.270;2023-03-19T07:46:58;18.80;69.20
60287;DHT22;46141;52.382;5.270;2023-03-19T07:49:24;18.80;69.30
60287;DHT22;46141;52.382;5.270;2023-03-19T07:51:50;18.80;69.30
60287;DHT22;46141;52.382;5.270;2023-03-19T07:54:16;18.80;69.40
60287;DHT22;46141;52.382;5.270;2023-03-19T07:56:41;18.80;69.40
60287;DHT22;46141;52.382;5.270;2023-03-19T07:59:07;18.80;69.50
60287;DHT22;46141;52.382;5.270;2023-03-19T08:01:33;18.80;69.50
60287;DHT22;46141;52.382;5.270;2023-03-19T08:03:58;18.90;69.60
60287;DHT22;46141;52.382;5.270;2023-03-19T08:06:24;18.90;69.70
60287;DHT22;46141;52.382;5.270;2023-03-19T08:08:50;18.80;69.70
60287;DHT22;46141;52.382;5.270;2023-03-19T08:11:16;18.80;70.30
60287;DHT22;46141;52.382;5.270;2023-03-19T08:13:42;18.90;71.20
60287;DHT22;46141;52.382;5.270;2023-03-19T08:16:08;18.80;72.00
60287;DHT22;46141;52.382;5.270;2023-03-19T08:18:34;18.80;71.90
60287;DHT22;46141;52.382;5.270;2023-03-19T08:21:00;18.80;72.20
60287;DHT22;46141;52.382;5.270;2023-03-19T08:23:26;18.80;72.00
60287;DHT22;46141;52.382;5.270;2023-03-19T08:25:52;18.80;71.80
60287;DHT22;46141;52.382;5.270;2023-03-19T08:28:20;18.80;71.90
60287;DHT22;46141;52.382;5.270;2023-03-19T08:30:45;18.90;72.20
60287;DHT22;46141;52.382;5.270;2023-03-19T08:33:12;19.00;71.80
60287;DHT22;46141;52.382;5.270;2023-03-19T08:35:38;19.10;72.00
60287;DHT22;46141;52.382;5.270;2023-03-19T08:38:03;19.10;72.00
60287;DHT22;46141;52.382;5.270;2023-03-19T08:40:29;19.20;71.90
60287;DHT22;46141;52.382;5.270;2023-03-19T08:42:55;19.30;71.90
60287;DHT22;46141;52.382;5.270;2023-03-19T08:45:22;19.40;71.90
60287;DHT22;46141;52.382;5.270;2023-03-19T08:47:48;19.40;71.90
60287;DHT22;46141;52.382;5.270;2023-03-19T08:50:14;19.50;71.90
60287;DHT22;46141;52.382;5.270;2023-03-19T08:52:40;19.50;71.70
60287;DHT22;46141;52.382;5.270;2023-03-19T08:55:08;19.60;71.80
60287;DHT22;46141;52.382;5.270;2023-03-19T08:57:34;19.60;71.70
60287;DHT22;46141;52.382;5.270;2023-03-19T09:00:00;19.70;71.40
60287;DHT22;46141;52.382;5.270;2023-03-19T09:02:26;19.70;71.40
60287;DHT22;46141;52.382;5.270;2023-03-19T09:04:52;19.80;71.50
60287;DHT22;46141;52.382;5.270;2023-03-19T09:07:18;19.80;71.50
60287;DHT22;46141;52.382;5.270;2023-03-19T09:09:44;19.90;71.40
60287;DHT22;46141;52.382;5.270;2023-03-19T09:12:12;20.00;71.30
60287;DHT22;46141;52.382;5.270;2023-03-19T09:14:38;20.10;71.30
60287;DHT22;46141;52.382;5.270;2023-03-19T09:17:05;20.10;71.10
60287;DHT22;46141;52.382;5.270;2023-03-19T09:19:32;20.20;70.50
60287;DHT22;46141;52.382;5.270;2023-03-19T09:21:58;20.20;70.40
60287;DHT22;46141;52.382;5.270;2023-03-19T09:24:24;20.30;70.60
60287;DHT22;46141;52.382;5.270;2023-03-19T09:26:50;20.30;71.00
60287;DHT22;46141;52.382;5.270;2023-03-19T09:29:16;20.40;70.70
60287;DHT22;46141;52.382;5.270;2023-03-19T09:31:42;20.40;71.10
60287;DHT22;46141;52.382;5.270;2023-03-19T09:34:08;20.40;71.20
60287;DHT22;46141;52.382;5.270;2023-03-19T09:36:37;20.40;71.00
60287;DHT22;46141;52.382;5.270;2023-03-19T09:39:04;20.40;71.50
60287;DHT22;46141;52.382;5.270;2023-03-19T09:49:46;20.50;70.30
60287;DHT22;46141;52.382;5.270;2023-03-19T09:55:03;20.50;70.20
60287;DHT22;46141;52.382;5.270;2023-03-19T09:57:30;20.50;70.10
60287;DHT22;46141;52.382;5.270;2023-03-19T09:59:57;20.50;70.00
60287;DHT22;46141;52.382;5.270;2023-03-19T10:02:40;20.50;70.00
60287;DHT22;46141;52.382;5.270;2023-03-19T10:11:23;20.50;69.90
60287;DHT22;46141;52.382;5.270;2023-03-19T10:16:57;20.60;69.20
60287;DHT22;46141;52.382;5.270;2023-03-19T10:19:43;20.50;69.00
60287;DHT22;46141;52.382;5.270;2023-03-19T10:22:33;20.50;69.10
60287;DHT22;46141;52.382;5.270;2023-03-19T10:25:02;20.50;69.30
60287;DHT22;46141;52.382;5.270;2023-03-19T10:27:28;20.60;69.50
60287;DHT22;46141;52.382;5.270;2023-03-19T10:29:54;20.60;69.50
60287;DHT22;46141;52.382;5.270;2023-03-19T10:32:52;20.60;69.30
60287;DHT22;46141;52.382;5.270;2023-03-19T10:35:18;20.60;69.20
60287;DHT22;46141;52.382;5.270;2023-03-19T10:37:47;20.70;69.30
60287;DHT22;46141;52.382;5.270;2023-03-19T10:40:28;20.70;69.40
60287;DHT22;46141;52.382;5.270;2023-03-19T10:43:17;20.70;69.50
60287;DHT22;46141;52.382;5.270;2023-03-19T10:45:43;20.80;69.60
60287;DHT22;46141;52.382;5.270;2023-03-19T10:48:18;20.80;69.60
60287;DHT22;46141;52.382;5.270;2023-03-19T10:50:56;20.80;69.70
60287;DHT22;46141;52.382;5.270;2023-03-19T10:53:37;20.80;69.70
60287;DHT22;46141;52.382;5.270;2023-03-19T10:56:06;20.80;69.70
60287;DHT22;46141;52.382;5.270;2023-03-19T10:58:39;20.80;69.50
60287;DHT22;46141;52.382;5.270;2023-03-19T11:01:08;20.80;69.60
60287;DHT22;46141;52.382;5.270;2023-03-19T11:03:36;20.80;69.50
60287;DHT22;46141;52.382;5.270;2023-03-19T11:06:15;20.80;68.80
60287;DHT22;46141;52.382;5.270;2023-03-19T11:09:00;20.80;68.50
60287;DHT22;46141;52.382;5.270;2023-03-19T11:14:08;20.80;68.80
60287;DHT22;46141;52.382;5.270;2023-03-19T11:17:01;20.80;69.00
60287;DHT22;46141;52.382;5.270;2023-03-19T11:19:31;20.80;69.30
60287;DHT22;46141;52.382;5.270;2023-03-19T11:24:27;20.80;69.50
60287;DHT22;46141;52.382;5.270;2023-03-19T11:26:56;20.80;69.70
60287;DHT22;46141;52.382;5.270;2023-03-19T11:29:22;20.80;69.50
60287;DHT22;46141;52.382;5.270;2023-03-19T11:45:23;21.00;69.40
60287;DHT22;46141;52.382;5.270;2023-03-19T11:56:33;21.00;69.70
60287;DHT22;46141;52.382;5.270;2023-03-19T12:02:32;21.00;69.70
60287;DHT22;46141;52.382;5.270;2023-03-19T12:05:23;21.00;69.70
60287;DHT22;46141;52.382;5.270;2023-03-19T12:18:18;21.00;70.40
60287;DHT22;46141;52.382;5.270;2023-03-19T12:23:58;21.00;70.40
60287;DHT22;46141;52.382;5.270;2023-03-19T12:26:30;21.00;70.60
60287;DHT22;46141;52.382;5.270;2023-03-19T12:31:43;20.90;70.60
60287;DHT22;46141;52.382;5.270;2023-03-19T12:36:57;20.90;70.60
60287;DHT22;46141;52.382;5.270;2023-03-19T12:39:36;21.00;70.60
60287;DHT22;46141;52.382;5.270;2023-03-19T12:42:10;20.90;69.40
60287;DHT22;46141;52.382;5.270;2023-03-19T12:44:47;20.90;69.10
60287;DHT22;46141;52.382;5.270;2023-03-19T12:47:36;20.90;69.00
60287;DHT22;46141;52.382;5.270;2023-03-19T12:50:10;20.90;68.80
60287;DHT22;46141;52.382;5.270;2023-03-19T12:52:40;20.90;69.20
60287;DHT22;46141;52.382;5.270;2023-03-19T12:55:59;20.90;69.70
60287;DHT22;46141;52.382;5.270;2023-03-19T13:01:20;20.90;69.90
60287;DHT22;46141;52.382;5.270;2023-03-19T13:04:05;20.90;69.90
60287;DHT22;46141;52.382;5.270;2023-03-19T13:06:37;20.90;70.00
60287;DHT22;46141;52.382;5.270;2023-03-19T13:09:15;20.90;70.00
60287;DHT22;46141;52.382;5.270;2023-03-19T13:14:33;20.90;70.00
60287;DHT22;46141;52.382;5.270;2023-03-19T13:20:06;21.00;70.30
60287;DHT22;46141;52.382;5.270;2023-03-19T13:22:41;20.90;70.20
60287;DHT22;46141;52.382;5.270;2023-03-19T13:25:15;21.00;70.20
60287;DHT22;46141;52.382;5.270;2023-03-19T13:27:52;20.90;70.20
60287;DHT22;46141;52.382;5.270;2023-03-19T13:30:19;21.00;70.30
60287;DHT22;46141;52.382;5.270;2023-03-19T13:32:49;21.00;70.40
60287;DHT22;46141;52.382;5.270;2023-03-19T13:41:04;20.90;70.00
60287;DHT22;46141;52.382;5.270;2023-03-19T13:54:05;21.00;70.20
60287;DHT22;46141;52.382;5.270;2023-03-19T13:59:30;21.00;70.50
60287;DHT22;46141;52.382;5.270;2023-03-19T14:01:58;21.00;70.70
60287;DHT22;46141;52.382;5.270;2023-03-19T14:04:33;21.00;70.70
60287;DHT22;46141;52.382;5.270;2023-03-19T14:07:17;20.90;70.70
60287;DHT22;46141;52.382;5.270;2023-03-19T14:12:32;21.00;70.80
60287;DHT22;46141;52.382;5.270;2023-03-19T14:17:43;21.00;70.90
60287;DHT22;46141;52.382;5.270;2023-03-19T14:22:52;21.00;70.80
60287;DHT22;46141;52.382;5.270;2023-03-19T14:25:26;21.00;70.80
60287;DHT22;46141;52.382;5.270;2023-03-19T14:27:59;21.00;70.80
60287;DHT22;46141;52.382;5.270;2023-03-19T14:30:45;21.00;70.80
60287;DHT22;46141;52.382;5.270;2023-03-19T14:33:21;21.00;70.80
60287;DHT22;46141;52.382;5.270;2023-03-19T14:35:49;21.00;70.80
60287;DHT22;46141;52.382;5.270;2023-03-19T14:38:36;21.00;70.80
60287;DHT22;46141;52.382;5.270;2023-03-19T14:41:04;21.00;70.80
60287;DHT22;46141;52.382;5.270;2023-03-19T14:44:12;21.00;70.70
60287;DHT22;46141;52.382;5.270;2023-03-19T14:49:49;21.00;70.80
60287;DHT22;46141;52.382;5.270;2023-03-19T14:57:29;21.00;70.60
60287;DHT22;46141;52.382;5.270;2023-03-19T14:59:58;21.00;70.50
60287;DHT22;46141;52.382;5.270;2023-03-19T15:02:38;21.00;70.50
60287;DHT22;46141;52.382;5.270;2023-03-19T15:07:39;21.00;70.50
60287;DHT22;46141;52.382;5.270;2023-03-19T15:10:17;21.00;70.50
60287;DHT22;46141;52.382;5.270;2023-03-19T15:13:17;21.00;70.40
60287;DHT22;46141;52.382;5.270;2023-03-19T15:16:04;21.00;70.60
60287;DHT22;46141;52.382;5.270;2023-03-19T15:18:34;21.10;70.60
60287;DHT22;46141;52.382;5.270;2023-03-19T15:21:02;21.10;70.10
60287;DHT22;46141;52.382;5.270;2023-03-19T15:23:29;21.00;69.20
60287;DHT22;46141;52.382;5.270;2023-03-19T15:25:57;21.00;68.00
60287;DHT22;46141;52.382;5.270;2023-03-19T15:28:28;21.00;67.80
60287;DHT22;46141;52.382;5.270;2023-03-19T15:31:00;21.00;67.70
60287;DHT22;46141;52.382;5.270;2023-03-19T15:33:37;21.00;67.70
60287;DHT22;46141;52.382;5.270;2023-03-19T15:36:17;20.90;67.50
60287;DHT22;46141;52.382;5.270;2023-03-19T15:38:58;20.90;67.50
60287;DHT22;46141;52.382;5.270;2023-03-19T15:41:29;20.90;68.00
60287;DHT22;46141;52.382;5.270;2023-03-19T15:43:57;20.90;68.40
60287;DHT22;46141;52.382;5.270;2023-03-19T15:46:28;20.90;68.50
60287;DHT22;46141;52.382;5.270;2023-03-19T15:49:19;21.00;68.30
60287;DHT22;46141;52.382;5.270;2023-03-19T15:51:49;20.90;68.40
60287;DHT22;46141;52.382;5.270;2023-03-19T15:54:18;20.90;68.20
60287;DHT22;46141;52.382;5.270;2023-03-19T15:56:46;20.90;68.50
60287;DHT22;46141;52.382;5.270;2023-03-19T15:59:13;20.90;68.90
60287;DHT22;46141;52.382;5.270;2023-03-19T16:01:39;20.90;68.90
60287;DHT22;46141;52.382;5.270;2023-03-19T16:04:07;20.90;69.00
60287;DHT22;46141;52.382;5.270;2023-03-19T16:06:39;20.90;69.00
60287;DHT22;46141;52.382;5.270;2023-03-19T16:11:44;20.90;69.40
60287;DHT22;46141;52.382;5.270;2023-03-19T16:16:40;21.00;69.50
60287;DHT22;46141;52.382;5.270;2023-03-19T16:21:55;20.90;69.60
60287;DHT22;46141;52.382;5.270;2023-03-19T16:24:29;20.90;69.70
60287;DHT22;46141;52.382;5.270;2023-03-19T16:26:57;20.90;69.70
60287;DHT22;46141;52.382;5.270;2023-03-19T16:29:30;20.90;69.70
60287;DHT22;46141;52.382;5.270;2023-03-19T16:34:45;20.90;69.70
60287;DHT22;46141;52.382;5.270;2023-03-19T16:42:51;21.00;69.80
60287;DHT22;46141;52.382;5.270;2023-03-19T16:45:28;20.90;69.70
60287;DHT22;46141;52.382;5.270;2023-03-19T16:47:56;21.00;69.70
60287;DHT22;46141;52.382;5.270;2023-03-19T16:50:32;21.00;69.50
60287;DHT22;46141;52.382;5.270;2023-03-19T16:53:01;21.00;69.40
60287;DHT22;46141;52.382;5.270;2023-03-19T16:55:30;20.90;69.60
60287;DHT22;46141;52.382;5.270;2023-03-19T16:58:13;20.90;69.60
60287;DHT22;46141;52.382;5.270;2023-03-19T17:00:40;20.90;69.70
60287;DHT22;46141;52.382;5.270;2023-03-19T17:03:14;21.00;69.80
60287;DHT22;46141;52.382;5.270;2023-03-19T17:05:41;21.00;69.80
60287;DHT22;46141;52.382;5.270;2023-03-19T17:08:07;21.00;69.80
60287;DHT22;46141;52.382;5.270;2023-03-19T17:10:35;21.00;69.90
60287;DHT22;46141;52.382;5.270;2023-03-19T17:13:03;21.10;70.30
60287;DHT22;46141;52.382;5.270;2023-03-19T17:15:39;21.10;70.80
60287;DHT22;46141;52.382;5.270;2023-03-19T17:18:22;21.10;71.20
60287;DHT22;46141;52.382;5.270;2023-03-19T17:20:57;21.20;71.50
60287;DHT22;46141;52.382;5.270;2023-03-19T17:23:26;21.30;71.10
60287;DHT22;46141;52.382;5.270;2023-03-19T17:25:53;21.30;71.10
60287;DHT22;46141;52.382;5.270;2023-03-19T17:28:19;21.30;71.00
60287;DHT22;46141;52.382;5.270;2023-03-19T17:30:45;21.20;71.40
60287;DHT22;46141;52.382;5.270;2023-03-19T17:33:25;21.20;71.60
60287;DHT22;46141;52.382;5.270;2023-03-19T17:35:52;21.20;71.80
60287;DHT22;46141;52.382;5.270;2023-03-19T17:38:21;21.30;71.60
60287;DHT22;46141;52.382;5.270;2023-03-19T17:40:48;21.20;71.10
60287;DHT22;46141;52.382;5.270;2023-03-19T17:43:14;21.20;71.10
60287;DHT22;46141;52.382;5.270;2023-03-19T17:45:43;21.20;71.40
60287;DHT22;46141;52.382;5.270;2023-03-19T17:48:21;21.20;71.40
60287;DHT22;46141;52.382;5.270;2023-03-19T17:50:49;21.20;71.40
60287;DHT22;46141;52.382;5.270;2023-03-19T17:53:16;21.20;71.30
60287;DHT22;46141;52.382;5.270;2023-03-19T17:55:44;21.20;71.30
60287;DHT22;46141;52.382;5.270;2023-03-19T17:58:19;21.20;71.50